createdAt,value
2024-02-26T00:00:18.604Z,6.30
2024-02-26T00:02:46.158Z,6.03
2024-02-26T00:05:13.744Z,6.10
2024-02-26T00:07:41.380Z,6.50
2024-02-26T00:10:09.098Z,6.55
2024-02-26T00:12:36.700Z,6.88
2024-02-26T00:15:04.313Z,6.57
2024-02-26T00:17:32.158Z,6.07
2024-02-26T00:19:59.794Z,6.38
2024-02-26T00:22:27.458Z,5.47
2024-02-26T00:24:54.951Z,6.53
2024-02-26T00:27:22.222Z,7.13
2024-02-26T00:29:49.854Z,6.22
2024-02-26T00:32:17.394Z,5.70
2024-02-26T00:34:45.359Z,6.68
2024-02-26T00:37:12.914Z,6.32
2024-02-26T00:39:40.658Z,6.32
2024-02-26T00:42:08.592Z,6.20
2024-02-26T00:44:36.118Z,6.27
2024-02-26T00:47:03.749Z,6.18
2024-02-26T00:49:31.223Z,6.30
2024-02-26T00:51:58.744Z,6.03
2024-02-26T00:54:26.294Z,6.03
2024-02-26T00:56:53.808Z,6.38
2024-02-26T00:59:21.356Z,6.57
2024-02-26T01:01:48.919Z,6.75
2024-02-26T01:04:16.658Z,5.85
2024-02-26T01:06:44.223Z,6.78
2024-02-26T01:09:11.844Z,6.97
2024-02-26T01:11:39.306Z,6.47
2024-02-26T01:14:07.396Z,6.75
2024-02-26T01:16:34.956Z,6.40
2024-02-26T01:19:02.552Z,6.68
2024-02-26T01:21:31.258Z,6.72
2024-02-26T01:23:58.742Z,6.10
2024-02-26T01:26:26.002Z,5.88
2024-02-26T01:28:53.551Z,6.45
2024-02-26T01:31:21.319Z,6.13
2024-02-26T01:33:49.038Z,6.05
2024-02-26T01:36:16.676Z,6.05
2024-02-26T01:38:44.396Z,5.47
2024-02-26T01:41:12.221Z,5.55
2024-02-26T01:43:39.690Z,6.00
2024-02-26T01:46:07.301Z,5.93
2024-02-26T01:48:34.916Z,6.03
2024-02-26T01:51:02.437Z,5.82
2024-02-26T01:53:30.035Z,6.00
2024-02-26T01:55:57.504Z,6.13
2024-02-26T01:58:25.047Z,6.35
2024-02-26T02:00:52.468Z,6.00
2024-02-26T02:03:20.107Z,6.72
2024-02-26T02:05:47.744Z,5.90
2024-02-26T02:08:18.019Z,6.68
2024-02-26T02:10:45.591Z,7.80
2024-02-26T02:13:13.064Z,6.20
2024-02-26T02:15:40.657Z,6.60
2024-02-26T02:18:08.561Z,7.28
2024-02-26T02:20:36.382Z,7.30
2024-02-26T02:23:03.818Z,7.20
2024-02-26T02:25:31.386Z,8.00
2024-02-26T02:27:58.723Z,8.48
2024-02-26T02:30:27.934Z,7.13
2024-02-26T02:32:56.567Z,7.03
2024-02-26T02:35:24.453Z,7.28
2024-02-26T02:37:54.749Z,7.80
2024-02-26T02:40:22.263Z,7.03
2024-02-26T02:42:49.674Z,7.10
2024-02-26T02:45:17.101Z,7.38
2024-02-26T02:47:44.786Z,7.13
2024-02-26T02:50:12.313Z,7.20
2024-02-26T02:52:39.752Z,6.70
2024-02-26T02:55:07.456Z,7.47
2024-02-26T02:57:34.960Z,7.30
2024-02-26T03:00:05.023Z,7.07
2024-02-26T03:02:32.728Z,7.40
2024-02-26T03:05:00.354Z,7.10
2024-02-26T03:07:27.886Z,7.00
2024-02-26T03:09:55.096Z,7.15
2024-02-26T03:12:22.603Z,7.50
2024-02-26T03:14:50.148Z,7.78
2024-02-26T03:17:17.666Z,6.85
2024-02-26T03:19:47.991Z,8.13
2024-02-26T03:22:15.475Z,6.72
2024-02-26T03:24:42.879Z,6.63
2024-02-26T03:27:10.891Z,7.72
2024-02-26T03:29:38.917Z,7.43
2024-02-26T03:32:06.727Z,7.22
2024-02-26T03:34:37.634Z,7.78
2024-02-26T03:37:05.032Z,7.80
2024-02-26T03:39:32.470Z,7.18
2024-02-26T03:41:59.997Z,7.57
2024-02-26T03:44:27.200Z,7.50
2024-02-26T03:46:54.384Z,7.80
2024-02-26T03:49:21.911Z,7.90
2024-02-26T03:51:49.762Z,7.55
2024-02-26T03:54:17.261Z,8.15
2024-02-26T03:56:44.737Z,7.90
2024-02-26T03:59:12.119Z,8.73
2024-02-26T04:01:39.700Z,10.02
2024-02-26T04:04:07.257Z,10.55
2024-02-26T04:06:34.857Z,9.77
2024-02-26T04:09:04.976Z,10.80
2024-02-26T04:11:32.821Z,10.35
2024-02-26T04:14:00.448Z,10.70
2024-02-26T04:16:27.848Z,10.32
2024-02-26T04:18:55.973Z,11.07
2024-02-26T04:21:23.323Z,12.25
2024-02-26T04:23:50.625Z,10.95
2024-02-26T04:26:18.140Z,11.60
2024-02-26T04:28:45.643Z,13.23
2024-02-26T04:31:13.010Z,13.07
2024-02-26T04:33:40.617Z,12.02
2024-02-26T04:36:13.163Z,11.45
2024-02-26T04:38:40.817Z,11.10
2024-02-26T04:41:08.259Z,11.18
2024-02-26T04:43:42.448Z,10.50
2024-02-26T04:46:10.437Z,9.98
2024-02-26T04:48:38.057Z,11.48
2024-02-26T04:51:05.696Z,10.82
2024-02-26T04:53:33.191Z,10.68
2024-02-26T04:56:00.634Z,10.98
2024-02-26T04:58:28.152Z,9.75
2024-02-26T05:00:55.864Z,9.73
2024-02-26T05:03:23.316Z,9.73
2024-02-26T05:05:51.050Z,10.07
2024-02-26T05:08:18.636Z,10.63
2024-02-26T05:10:46.533Z,10.65
2024-02-26T05:13:16.451Z,10.43
2024-02-26T05:15:43.740Z,10.52
2024-02-26T05:18:11.361Z,10.48
2024-02-26T05:20:39.202Z,11.50
2024-02-26T05:23:06.774Z,10.30
2024-02-26T05:25:34.385Z,10.88
2024-02-26T05:28:02.085Z,9.95
2024-02-26T05:30:30.335Z,11.50
2024-02-26T05:32:58.117Z,10.50
2024-02-26T05:35:27.053Z,10.32
2024-02-26T05:37:55.211Z,10.40
2024-02-26T05:40:22.774Z,8.03
2024-02-26T05:42:50.425Z,11.60
2024-02-26T05:45:18.037Z,10.52
2024-02-26T05:47:45.726Z,10.15
2024-02-26T05:50:13.837Z,11.15
2024-02-26T05:52:41.400Z,11.30
2024-02-26T05:55:09.192Z,11.05
2024-02-26T05:57:37.127Z,10.20
2024-02-26T06:00:05.313Z,10.05
2024-02-26T06:02:32.954Z,7.35
2024-02-26T06:05:00.563Z,8.82
2024-02-26T06:07:28.000Z,9.60
2024-02-26T06:09:55.491Z,8.48
2024-02-26T06:12:23.094Z,8.43
2024-02-26T06:14:50.773Z,8.57
2024-02-26T06:17:18.222Z,8.52
2024-02-26T06:19:45.761Z,9.00
2024-02-26T06:22:13.312Z,8.38
2024-02-26T06:24:40.744Z,9.15
2024-02-26T06:27:08.346Z,8.32
2024-02-26T06:29:35.889Z,8.18
2024-02-26T06:32:03.454Z,8.63
2024-02-26T06:34:30.976Z,9.80
2024-02-26T06:36:58.487Z,9.68
2024-02-26T06:39:25.927Z,8.18
2024-02-26T06:42:01.096Z,10.02
2024-02-26T06:44:33.102Z,12.90
2024-02-26T06:47:01.338Z,9.68
2024-02-26T06:49:29.226Z,8.02
2024-02-26T06:51:56.992Z,7.28
2024-02-26T06:54:24.510Z,8.68
2024-02-26T06:56:52.034Z,9.10
2024-02-26T06:59:21.176Z,8.80
2024-02-26T07:01:48.463Z,8.48
2024-02-26T07:04:16.221Z,9.43
2024-02-26T07:06:45.140Z,8.07
2024-02-26T07:09:13.717Z,8.45
2024-02-26T07:11:44.941Z,8.00
2024-02-26T07:14:13.401Z,8.00
2024-02-26T07:16:40.637Z,5.47
2024-02-26T07:19:08.437Z,7.13
2024-02-26T07:21:36.125Z,5.43
2024-02-26T07:24:03.731Z,7.00
2024-02-26T07:26:32.053Z,6.85
2024-02-26T07:28:59.924Z,7.50
2024-02-26T07:31:27.218Z,6.65
2024-02-26T07:33:54.837Z,7.72
2024-02-26T07:36:22.659Z,7.85
2024-02-26T07:38:50.596Z,7.65
2024-02-26T07:41:18.308Z,6.07
2024-02-26T07:43:45.555Z,8.80
2024-02-26T07:46:13.813Z,7.82
2024-02-26T07:48:42.572Z,6.20
2024-02-26T07:51:10.258Z,10.80
2024-02-26T07:53:37.770Z,14.18
2024-02-26T07:56:05.272Z,9.57
2024-02-26T07:58:35.704Z,16.60
2024-02-26T08:01:03.406Z,12.02
2024-02-26T08:03:30.848Z,10.10
2024-02-26T08:05:58.431Z,8.40
2024-02-26T08:08:25.984Z,6.95
2024-02-26T08:10:53.508Z,6.88
2024-02-26T08:13:20.995Z,6.45
2024-02-26T08:15:48.476Z,6.30
2024-02-26T08:18:17.384Z,6.43
2024-02-26T08:20:45.172Z,6.30
2024-02-26T08:23:12.889Z,7.45
2024-02-26T08:25:40.326Z,7.28
2024-02-26T08:28:07.924Z,8.48
2024-02-26T08:30:35.649Z,8.40
2024-02-26T08:33:03.417Z,8.48
2024-02-26T08:35:31.090Z,8.32
2024-02-26T08:37:58.509Z,8.77
2024-02-26T08:40:25.998Z,7.75
2024-02-26T08:42:53.135Z,9.25
2024-02-26T08:45:20.628Z,8.77
2024-02-26T08:47:48.232Z,9.32
2024-02-26T08:50:15.936Z,8.20
2024-02-26T08:52:43.482Z,9.07
2024-02-26T08:55:11.060Z,8.25
2024-02-26T08:57:39.777Z,8.45
2024-02-26T09:00:07.432Z,9.15
2024-02-26T09:02:35.061Z,9.25
2024-02-26T09:05:02.656Z,8.02
2024-02-26T09:07:30.285Z,9.25
2024-02-26T09:09:57.972Z,7.68
2024-02-26T09:12:25.650Z,8.13
2024-02-26T09:14:53.360Z,7.82
2024-02-26T09:17:20.877Z,7.90
2024-02-26T09:19:48.367Z,7.72
2024-02-26T09:22:18.536Z,7.70
2024-02-26T09:24:46.626Z,8.38
2024-02-26T09:27:13.855Z,8.00
2024-02-26T09:29:41.332Z,8.02
2024-02-26T09:32:08.892Z,8.02
2024-02-26T09:34:36.230Z,7.57
2024-02-26T09:37:12.074Z,7.50
2024-02-26T09:39:43.451Z,7.00
2024-02-26T09:42:11.317Z,6.53
2024-02-26T09:44:40.954Z,5.97
2024-02-26T09:47:10.428Z,6.53
2024-02-26T09:49:38.230Z,6.30
2024-02-26T09:52:06.188Z,5.40
2024-02-26T09:54:34.256Z,4.70
2024-02-26T09:57:04.829Z,5.18
2024-02-26T09:59:41.364Z,6.47
2024-02-26T10:02:15.510Z,7.10
2024-02-26T10:04:46.913Z,6.80
2024-02-26T10:07:17.313Z,6.68
2024-02-26T10:09:44.921Z,4.43
2024-02-26T10:12:16.913Z,5.32
2024-02-26T10:14:44.683Z,5.05
2024-02-26T10:17:12.569Z,4.80
2024-02-26T10:19:40.397Z,4.97
2024-02-26T10:22:08.097Z,6.03
2024-02-26T10:24:36.195Z,6.68
2024-02-26T10:27:04.257Z,5.63
2024-02-26T10:29:32.243Z,5.35
2024-02-26T10:31:59.809Z,5.90
2024-02-26T10:34:27.795Z,5.03
2024-02-26T10:36:55.710Z,3.77
2024-02-26T10:39:23.501Z,5.85
2024-02-26T10:41:51.257Z,5.20
2024-02-26T10:44:19.794Z,5.53
2024-02-26T10:46:48.216Z,5.10
2024-02-26T10:49:21.960Z,6.03
2024-02-26T10:51:53.967Z,5.03
2024-02-26T10:54:22.427Z,5.55
2024-02-26T10:56:51.066Z,3.80
2024-02-26T10:59:22.232Z,6.28
2024-02-26T11:01:50.897Z,5.30
2024-02-26T11:04:19.628Z,5.93
2024-02-26T11:06:47.690Z,6.15
2024-02-26T11:09:16.381Z,4.43
2024-02-26T11:11:44.173Z,6.05
2024-02-26T11:14:12.321Z,5.80
2024-02-26T11:16:40.891Z,5.30
2024-02-26T11:19:10.902Z,4.03
2024-02-26T11:21:42.625Z,5.07
2024-02-26T11:24:12.131Z,5.60
2024-02-26T11:26:49.440Z,6.00
2024-02-26T11:29:18.713Z,5.85
2024-02-26T11:31:46.408Z,5.80
2024-02-26T11:34:14.600Z,5.53
2024-02-26T11:36:43.573Z,5.05
2024-02-26T11:39:13.709Z,6.20
2024-02-26T11:41:41.478Z,5.80
2024-02-26T11:44:09.105Z,6.10
2024-02-26T11:46:44.335Z,5.82
2024-02-26T11:49:27.445Z,5.82
2024-02-26T11:52:01.844Z,6.22
2024-02-26T11:54:39.577Z,6.28
2024-02-26T11:57:20.912Z,6.72
2024-02-26T11:59:48.670Z,6.40
2024-02-26T12:02:34.521Z,6.38
2024-02-26T12:05:02.891Z,6.30
2024-02-26T12:07:31.019Z,6.47
2024-02-26T12:10:14.803Z,6.80
2024-02-26T12:12:42.796Z,6.18
2024-02-26T12:15:12.147Z,6.18
2024-02-26T12:17:39.770Z,6.32
2024-02-26T12:20:11.262Z,6.10
2024-02-26T12:22:40.837Z,5.82
2024-02-26T12:25:10.771Z,6.22
2024-02-26T12:27:38.393Z,5.57
2024-02-26T12:30:07.626Z,5.82
2024-02-26T12:32:36.104Z,6.07
2024-02-26T12:35:04.008Z,4.57
2024-02-26T12:37:31.599Z,5.75
2024-02-26T12:39:59.175Z,6.13
2024-02-26T12:42:27.049Z,5.80
2024-02-26T12:44:55.140Z,6.03
2024-02-26T12:47:22.334Z,6.03
2024-02-26T12:49:50.314Z,6.15
2024-02-26T12:52:17.774Z,5.70
2024-02-26T12:54:45.651Z,6.45
2024-02-26T12:57:13.375Z,5.32
2024-02-26T12:59:41.212Z,6.30
2024-02-26T13:02:08.917Z,5.80
2024-02-26T13:04:36.758Z,5.88
2024-02-26T13:07:06.121Z,6.35
2024-02-26T13:09:36.100Z,6.28
2024-02-26T13:12:07.534Z,6.35
2024-02-26T13:14:35.697Z,6.15
2024-02-26T13:17:04.040Z,7.17
2024-02-26T13:19:31.785Z,7.32
2024-02-26T13:22:07.579Z,6.55
2024-02-26T13:24:35.892Z,7.35
2024-02-26T13:27:06.328Z,7.72
2024-02-26T13:29:34.393Z,6.93
2024-02-26T13:32:01.659Z,6.25
2024-02-26T13:34:30.414Z,6.22
2024-02-26T13:36:58.298Z,6.32
2024-02-26T13:39:26.444Z,6.45
2024-02-26T13:41:54.670Z,6.90
2024-02-26T13:44:22.292Z,5.97
2024-02-26T13:46:50.668Z,6.65
2024-02-26T13:49:18.469Z,5.63
2024-02-26T13:51:46.148Z,7.70
2024-02-26T13:54:15.193Z,6.40
2024-02-26T13:56:45.181Z,6.28
2024-02-26T13:59:14.129Z,6.85
2024-02-26T14:01:41.582Z,6.10
2024-02-26T14:04:10.568Z,6.50
2024-02-26T14:09:05.788Z,6.30
2024-02-26T14:11:33.610Z,6.10
2024-02-26T14:14:01.136Z,6.30
2024-02-26T14:16:30.818Z,6.20
2024-02-26T14:18:59.909Z,7.15
2024-02-26T14:21:28.567Z,6.72
2024-02-26T14:23:56.978Z,6.93
2024-02-26T14:26:24.708Z,6.20
2024-02-26T14:28:52.179Z,6.45
2024-02-26T14:31:19.760Z,7.20
2024-02-26T14:33:47.587Z,6.80
2024-02-26T14:36:15.805Z,6.47
2024-02-26T14:38:43.446Z,6.53
2024-02-26T14:41:11.649Z,6.47
2024-02-26T14:43:39.109Z,4.75
2024-02-26T14:46:06.597Z,6.25
2024-02-26T14:48:34.053Z,6.32
2024-02-26T14:51:01.782Z,6.43
2024-02-26T14:53:29.283Z,6.07
2024-02-26T14:55:56.814Z,6.25
2024-02-26T14:58:24.357Z,6.30
2024-02-26T15:00:52.462Z,6.72
2024-02-26T15:03:20.375Z,8.38
2024-02-26T15:05:48.040Z,7.40
2024-02-26T15:08:17.301Z,6.88
2024-02-26T15:10:49.412Z,6.60
2024-02-26T15:13:19.314Z,6.47
2024-02-26T15:15:47.539Z,7.28
2024-02-26T15:18:17.477Z,6.20
2024-02-26T15:20:45.424Z,5.80
2024-02-26T15:23:13.403Z,5.72
2024-02-26T15:25:42.639Z,5.80
2024-02-26T15:28:12.620Z,6.43
2024-02-26T15:30:40.267Z,5.55
2024-02-26T15:33:07.692Z,5.60
2024-02-26T15:35:35.467Z,4.93
2024-02-26T15:38:02.967Z,6.00
2024-02-26T15:40:30.495Z,5.38
2024-02-26T15:42:57.942Z,5.85
2024-02-26T15:45:26.200Z,5.03
2024-02-26T15:47:54.083Z,4.18
2024-02-26T15:50:21.637Z,5.63
2024-02-26T15:52:49.162Z,6.30
2024-02-26T15:55:18.743Z,6.57
2024-02-26T15:57:47.071Z,6.47
2024-02-26T16:00:14.937Z,6.35
2024-02-26T16:02:42.470Z,6.32
2024-02-26T16:05:10.372Z,5.75
2024-02-26T16:07:43.322Z,4.47
2024-02-26T16:10:10.983Z,6.40
2024-02-26T16:12:43.998Z,5.80
2024-02-26T16:15:11.938Z,5.60
2024-02-26T16:17:48.284Z,6.47
2024-02-26T16:20:17.158Z,6.38
2024-02-26T16:22:44.750Z,5.45
2024-02-26T16:25:12.656Z,5.75
2024-02-26T16:27:41.967Z,5.75
2024-02-26T16:30:10.401Z,6.45
2024-02-26T16:32:41.445Z,6.03
2024-02-26T16:35:09.211Z,5.60
2024-02-26T16:37:36.593Z,6.45
2024-02-26T16:40:05.945Z,6.53
2024-02-26T16:42:35.981Z,5.28
2024-02-26T16:45:05.383Z,6.43
2024-02-26T16:47:34.465Z,6.25
2024-02-26T16:52:29.256Z,5.60
2024-02-26T16:54:57.055Z,5.78
2024-02-26T16:57:24.707Z,6.47
2024-02-26T16:59:52.322Z,5.85
2024-02-26T17:02:19.846Z,5.95
2024-02-26T17:04:47.457Z,6.85
2024-02-26T17:07:17.245Z,5.88
2024-02-26T17:09:44.761Z,6.57
2024-02-26T17:12:12.336Z,6.70
2024-02-26T17:14:39.844Z,6.85
2024-02-26T17:17:08.176Z,7.15
2024-02-26T17:19:36.514Z,7.53
2024-02-26T17:22:04.109Z,4.78
2024-02-26T17:24:31.627Z,6.72
2024-02-26T17:26:59.233Z,7.75
2024-02-26T17:29:26.769Z,8.05
2024-02-26T17:31:54.309Z,7.03
2024-02-26T17:34:22.300Z,6.70
2024-02-26T17:36:50.145Z,6.17
2024-02-26T17:39:18.541Z,7.43
2024-02-26T17:41:46.410Z,7.40
2024-02-26T17:44:13.851Z,7.90
2024-02-26T17:46:41.207Z,7.82
2024-02-26T17:49:09.194Z,7.15
2024-02-26T17:51:36.773Z,7.80
2024-02-26T17:54:04.105Z,7.90
2024-02-26T17:56:31.665Z,7.85
2024-02-26T17:58:59.192Z,8.00
2024-02-26T18:01:27.743Z,8.18
2024-02-26T18:03:55.380Z,7.75
2024-02-26T18:06:22.982Z,8.15
2024-02-26T18:08:50.675Z,8.52
2024-02-26T18:11:18.317Z,8.07
2024-02-26T18:13:46.517Z,8.70
2024-02-26T18:16:14.741Z,8.57
2024-02-26T18:18:47.567Z,6.23
2024-02-26T18:21:17.796Z,7.40
2024-02-26T18:23:45.492Z,7.40
2024-02-26T18:26:19.953Z,6.13
2024-02-26T18:28:47.862Z,6.53
2024-02-26T18:31:15.937Z,6.63
2024-02-26T18:33:43.328Z,5.72
2024-02-26T18:36:11.181Z,6.68
2024-02-26T18:38:40.492Z,5.75
2024-02-26T18:41:08.112Z,6.15
2024-02-26T18:43:35.707Z,5.75
2024-02-26T18:46:03.411Z,5.85
2024-02-26T18:48:31.770Z,5.65
2024-02-26T18:51:01.069Z,6.63
2024-02-26T18:53:28.588Z,6.60
2024-02-26T18:55:56.078Z,5.75
2024-02-26T18:58:24.950Z,6.15
2024-02-26T19:03:19.816Z,4.78
2024-02-26T19:05:47.510Z,3.92
2024-02-26T19:08:16.616Z,4.25
2024-02-26T19:10:44.243Z,3.78
2024-02-26T19:13:11.783Z,4.35
2024-02-26T19:15:41.447Z,3.78
2024-02-26T19:18:09.026Z,3.40
2024-02-26T19:20:36.521Z,3.13
2024-02-26T19:23:04.092Z,3.20
2024-02-26T19:25:31.565Z,3.28
2024-02-26T19:27:59.117Z,3.00
2024-02-26T19:30:26.570Z,2.60
2024-02-26T19:32:54.505Z,2.65
2024-02-26T19:35:22.825Z,2.50
2024-02-26T19:37:50.418Z,2.75
2024-02-26T19:40:18.262Z,2.00
2024-02-26T19:42:46.094Z,2.78
2024-02-26T19:45:13.714Z,3.35
2024-02-26T19:47:41.730Z,2.65
2024-02-26T19:50:09.885Z,2.55
2024-02-26T19:52:37.520Z,3.00
2024-02-26T19:55:05.389Z,2.60
2024-02-26T19:57:34.765Z,2.85
2024-02-26T20:00:02.770Z,3.00
2024-02-26T20:02:30.585Z,3.00
2024-02-26T20:04:58.388Z,3.40
2024-02-26T20:07:25.977Z,3.40
2024-02-26T20:09:53.581Z,3.83
2024-02-26T20:12:21.199Z,4.13
2024-02-26T20:14:48.988Z,3.75
2024-02-26T20:17:17.234Z,3.50
2024-02-26T20:19:45.056Z,3.70
2024-02-26T20:22:14.685Z,3.42
2024-02-26T20:24:41.992Z,3.75
2024-02-26T20:27:10.887Z,3.50
2024-02-26T20:29:39.785Z,3.17
2024-02-26T20:32:07.614Z,3.28
2024-02-26T20:34:35.196Z,3.58
2024-02-26T20:37:05.165Z,3.30
2024-02-26T20:39:32.725Z,3.05
2024-02-26T20:42:00.357Z,2.97
2024-02-26T20:44:27.919Z,3.25
2024-02-26T20:47:00.135Z,3.08
2024-02-26T20:49:27.822Z,3.10
2024-02-26T20:51:55.423Z,3.15
2024-02-26T20:54:23.042Z,3.28
2024-02-26T20:56:50.874Z,2.80
2024-02-26T20:59:18.412Z,3.20
2024-02-26T21:01:45.852Z,3.20
2024-02-26T21:04:13.356Z,3.53
2024-02-26T21:06:40.997Z,3.72
2024-02-26T21:09:09.159Z,4.00
2024-02-26T21:11:37.091Z,2.85
2024-02-26T21:14:04.856Z,4.03
2024-02-26T21:16:32.350Z,3.78
2024-02-26T21:19:00.874Z,4.63
2024-02-26T21:21:29.763Z,4.60
2024-02-26T21:24:01.037Z,3.95
2024-02-26T21:26:30.314Z,5.50
2024-02-26T21:28:57.817Z,5.22
2024-02-26T21:31:25.337Z,4.82
2024-02-26T21:33:53.038Z,4.03
2024-02-26T21:36:20.766Z,4.35
2024-02-26T21:38:50.870Z,3.75
2024-02-26T21:41:20.261Z,3.65
2024-02-26T21:43:52.035Z,3.67
2024-02-26T21:46:20.741Z,3.47
2024-02-26T21:48:48.747Z,2.70
2024-02-26T21:51:16.456Z,3.72
2024-02-26T21:53:45.954Z,3.67
2024-02-26T21:56:14.556Z,3.50
2024-02-26T21:58:42.188Z,4.00
2024-02-26T22:01:09.735Z,3.40
2024-02-26T22:03:37.353Z,3.33
2024-02-26T22:06:04.825Z,3.88
2024-02-26T22:08:32.329Z,3.22
2024-02-26T22:11:01.332Z,3.40
2024-02-26T22:13:29.013Z,3.38
2024-02-26T22:15:56.514Z,3.58
2024-02-26T22:18:24.213Z,3.30
2024-02-26T22:20:51.921Z,3.17
2024-02-26T22:23:19.418Z,3.88
2024-02-26T22:25:47.328Z,4.15
2024-02-26T22:28:14.900Z,3.80
2024-02-26T22:30:42.209Z,4.10
2024-02-26T22:33:09.796Z,4.03
2024-02-26T22:35:37.532Z,4.15
2024-02-26T22:38:05.961Z,4.18
2024-02-26T22:40:33.522Z,4.20
2024-02-26T22:43:01.057Z,4.00
2024-02-26T22:45:28.538Z,4.00
2024-02-26T22:47:55.908Z,4.60
2024-02-26T22:50:23.522Z,5.05
2024-02-26T22:52:52.369Z,4.70
2024-02-26T22:55:24.613Z,4.97
2024-02-26T22:57:52.903Z,4.65
2024-02-26T23:00:33.332Z,3.20
2024-02-26T23:03:01.921Z,3.70
2024-02-26T23:05:29.812Z,4.10
2024-02-26T23:07:57.484Z,4.45
2024-02-26T23:10:25.505Z,4.32
2024-02-26T23:12:53.179Z,4.30
2024-02-26T23:15:20.799Z,4.60
2024-02-26T23:17:54.249Z,5.40
2024-02-26T23:20:22.405Z,5.57
2024-02-26T23:22:50.346Z,6.18
2024-02-26T23:25:19.113Z,4.20
2024-02-26T23:27:49.626Z,5.40
2024-02-26T23:30:19.388Z,4.93
2024-02-26T23:32:47.143Z,5.60
2024-02-26T23:35:14.686Z,5.25
2024-02-26T23:37:41.905Z,6.30
2024-02-26T23:40:09.464Z,6.10
2024-02-26T23:42:38.187Z,5.70
2024-02-26T23:45:07.121Z,6.20
2024-02-26T23:47:35.024Z,5.82
2024-02-26T23:50:02.726Z,5.93
2024-02-26T23:52:30.230Z,5.60
2024-02-26T23:54:57.779Z,5.60
2024-02-26T23:57:25.314Z,5.70
2024-02-26T23:59:52.999Z,6.20
